createdAt,value
2018-06-19T00:01:54.609Z,4.13
2018-06-19T00:04:22.728Z,5.97
2018-06-19T00:06:50.874Z,4.90
2018-06-19T00:09:18.974Z,4.87
2018-06-19T00:11:47.100Z,5.83
2018-06-19T00:14:15.191Z,4.40
2018-06-19T00:16:43.313Z,4.47
2018-06-19T00:19:11.406Z,6.93
2018-06-19T00:21:50.577Z,6.73
2018-06-19T00:24:18.737Z,4.70
2018-06-19T00:26:46.870Z,4.70
2018-06-19T00:29:14.988Z,4.87
2018-06-19T00:31:43.106Z,3.77
2018-06-19T00:34:11.223Z,6.00
2018-06-19T00:36:39.331Z,4.60
2018-06-19T00:39:08.644Z,5.60
2018-06-19T00:41:36.773Z,5.73
2018-06-19T00:44:04.882Z,4.20
2018-06-19T00:46:33.832Z,6.03
2018-06-19T00:49:01.961Z,4.67
2018-06-19T00:51:30.054Z,6.13
2018-06-19T00:53:58.168Z,4.50
2018-06-19T00:56:37.659Z,4.37
2018-06-19T00:59:05.735Z,5.30
2018-06-19T01:01:33.850Z,4.93
2018-06-19T01:04:01.968Z,7.00
2018-06-19T01:06:30.075Z,5.03
2018-06-19T01:08:58.188Z,4.33
2018-06-19T01:11:26.304Z,7.60
2018-06-19T01:13:54.594Z,6.63
2018-06-19T01:16:22.696Z,6.13
2018-06-19T01:18:50.772Z,8.03
2018-06-19T01:21:18.863Z,7.43
2018-06-19T01:23:46.947Z,6.53
2018-06-19T01:26:15.070Z,8.30
2018-06-19T01:28:43.214Z,5.63
2018-06-19T01:31:11.316Z,7.70
2018-06-19T01:33:39.414Z,6.23
2018-06-19T01:36:07.504Z,5.60
2018-06-19T01:38:35.609Z,6.10
2018-06-19T01:41:03.690Z,9.47
2018-06-19T01:43:31.855Z,6.50
2018-06-19T01:45:59.961Z,7.97
2018-06-19T01:48:28.071Z,8.17
2018-06-19T01:50:56.767Z,8.70
2018-06-19T01:53:24.872Z,8.63
2018-06-19T01:55:53.060Z,9.67
2018-06-19T01:58:21.151Z,10.87
2018-06-19T02:00:49.282Z,10.03
2018-06-19T02:03:17.388Z,9.50
2018-06-19T02:05:45.483Z,9.60
2018-06-19T02:08:13.567Z,8.10
2018-06-19T02:10:41.659Z,11.23
2018-06-19T02:13:09.764Z,7.80
2018-06-19T02:15:37.860Z,11.47
2018-06-19T02:18:05.995Z,7.67
2018-06-19T02:20:34.143Z,7.40
2018-06-19T02:23:02.292Z,7.77
2018-06-19T02:25:30.411Z,7.73
2018-06-19T02:27:58.521Z,8.27
2018-06-19T02:30:26.629Z,11.10
2018-06-19T02:32:54.727Z,9.37
2018-06-19T02:35:22.835Z,9.13
2018-06-19T02:37:50.946Z,9.67
2018-06-19T02:40:19.062Z,11.67
2018-06-19T02:42:47.193Z,10.23
2018-06-19T02:45:15.312Z,8.27
2018-06-19T02:47:43.436Z,9.73
2018-06-19T02:50:11.555Z,12.83
2018-06-19T02:52:39.696Z,9.80
2018-06-19T02:55:07.795Z,10.43
2018-06-19T02:57:35.904Z,10.73
2018-06-19T03:00:04.427Z,11.20
2018-06-19T03:02:32.549Z,11.90
2018-06-19T03:05:00.659Z,11.83
2018-06-19T03:07:28.773Z,12.10
2018-06-19T03:09:56.881Z,13.23
2018-06-19T03:12:24.979Z,10.20
2018-06-19T03:14:53.099Z,11.80
2018-06-19T03:17:21.203Z,10.80
2018-06-19T03:19:49.326Z,10.40
2018-06-19T03:22:17.434Z,10.53
2018-06-19T03:24:45.553Z,12.70
2018-06-19T03:27:13.669Z,10.00
2018-06-19T03:29:41.775Z,9.17
2018-06-19T03:32:09.880Z,9.50
2018-06-19T03:34:38.003Z,11.50
2018-06-19T03:37:06.128Z,11.33
2018-06-19T03:39:34.245Z,11.93
2018-06-19T03:42:02.339Z,9.73
2018-06-19T03:44:30.472Z,9.67
2018-06-19T03:46:58.580Z,8.33
2018-06-19T03:49:26.719Z,9.73
2018-06-19T03:51:54.843Z,12.33
2018-06-19T03:54:23.047Z,10.93
2018-06-19T03:56:51.166Z,10.60
2018-06-19T03:59:19.287Z,11.37
2018-06-19T04:01:47.408Z,11.73
2018-06-19T04:04:15.519Z,11.60
2018-06-19T04:06:43.649Z,14.90
2018-06-19T04:09:11.766Z,12.00
2018-06-19T04:11:39.901Z,13.17
2018-06-19T04:14:08.049Z,13.93
2018-06-19T04:16:36.182Z,13.40
2018-06-19T04:19:04.279Z,13.20
2018-06-19T04:21:32.386Z,16.33
2018-06-19T04:24:00.490Z,11.70
2018-06-19T04:26:28.639Z,13.27
2018-06-19T04:28:56.758Z,13.03
2018-06-19T04:31:24.878Z,13.20
2018-06-19T04:33:53.355Z,11.53
2018-06-19T04:36:21.489Z,13.83
2018-06-19T04:38:49.594Z,13.17
2018-06-19T04:41:17.711Z,13.07
2018-06-19T04:43:45.860Z,12.83
2018-06-19T04:46:13.984Z,15.23
2018-06-19T04:48:42.094Z,15.20
2018-06-19T04:51:10.216Z,12.40
2018-06-19T04:53:38.331Z,12.07
2018-06-19T04:56:06.442Z,14.17
2018-06-19T04:58:34.563Z,12.30
2018-06-19T05:01:02.670Z,12.80
2018-06-19T05:03:30.771Z,12.27
2018-06-19T05:05:59.022Z,12.37
2018-06-19T05:08:27.227Z,10.57
2018-06-19T05:10:55.393Z,12.03
2018-06-19T05:13:23.515Z,10.63
2018-06-19T05:15:51.734Z,11.63
2018-06-19T05:18:19.927Z,8.43
2018-06-19T05:20:48.061Z,9.37
2018-06-19T05:23:16.282Z,8.47
2018-06-19T05:25:44.522Z,9.97
2018-06-19T05:28:12.628Z,7.67
2018-06-19T05:30:40.748Z,7.37
2018-06-19T05:33:08.884Z,7.23
2018-06-19T05:35:36.992Z,6.70
2018-06-19T05:38:05.159Z,6.57
2018-06-19T05:40:33.259Z,7.43
2018-06-19T05:43:01.412Z,7.30
2018-06-19T05:45:29.515Z,6.23
2018-06-19T05:47:57.637Z,6.57
2018-06-19T05:50:25.775Z,6.13
2018-06-19T05:52:53.966Z,6.00
2018-06-19T05:55:22.072Z,4.77
2018-06-19T05:57:50.184Z,4.83
2018-06-19T06:00:18.277Z,5.47
2018-06-19T06:02:46.392Z,7.20
2018-06-19T06:05:14.517Z,4.63
2018-06-19T06:07:42.642Z,5.73
2018-06-19T06:10:10.793Z,5.60
2018-06-19T06:12:38.914Z,5.17
2018-06-19T06:15:07.026Z,7.07
2018-06-19T06:17:35.305Z,6.47
2018-06-19T06:20:03.190Z,5.00
2018-06-19T06:22:31.304Z,5.43
2018-06-19T06:24:59.463Z,6.63
2018-06-19T06:27:27.607Z,4.53
2018-06-19T06:29:55.789Z,4.27
2018-06-19T06:32:23.935Z,10.23
2018-06-19T06:34:52.100Z,5.93
2018-06-19T06:37:20.224Z,4.97
2018-06-19T06:39:48.348Z,4.60
2018-06-19T06:42:16.531Z,5.80
2018-06-19T06:44:44.630Z,7.80
2018-06-19T06:47:12.760Z,7.90
2018-06-19T06:49:40.882Z,9.20
2018-06-19T06:52:09.032Z,6.63
2018-06-19T06:54:37.141Z,5.57
2018-06-19T06:57:05.355Z,4.73
2018-06-19T06:59:33.459Z,5.40
2018-06-19T07:02:01.564Z,5.77
2018-06-19T07:04:29.666Z,5.50
2018-06-19T07:06:58.848Z,4.47
2018-06-19T07:09:26.972Z,5.13
2018-06-19T07:11:55.063Z,4.40
2018-06-19T07:14:23.182Z,4.73
2018-06-19T07:16:51.278Z,8.30
2018-06-19T07:19:19.427Z,6.17
2018-06-19T07:21:47.506Z,6.00
2018-06-19T07:24:15.724Z,6.03
2018-06-19T07:26:43.821Z,4.87
2018-06-19T07:29:11.996Z,5.53
2018-06-19T07:31:40.095Z,5.40
2018-06-19T07:34:08.211Z,4.63
2018-06-19T07:36:36.299Z,7.40
2018-06-19T07:39:06.976Z,5.20
2018-06-19T07:41:35.077Z,5.10
2018-06-19T07:44:03.273Z,6.57
2018-06-19T07:46:31.317Z,4.33
2018-06-19T07:48:59.432Z,5.30
2018-06-19T07:51:27.534Z,5.17
2018-06-19T07:53:55.676Z,4.90
2018-06-19T07:56:23.895Z,4.70
2018-06-19T07:58:52.007Z,6.00
2018-06-19T08:01:20.119Z,4.57
2018-06-19T08:03:48.215Z,5.23
2018-06-19T08:06:16.315Z,4.60
2018-06-19T08:08:44.485Z,7.60
2018-06-19T08:11:12.576Z,4.07
2018-06-19T08:13:40.694Z,6.63
2018-06-19T08:16:08.784Z,4.30
2018-06-19T08:18:37.200Z,5.13
2018-06-19T08:21:05.394Z,5.90
2018-06-19T08:23:33.538Z,4.10
2018-06-19T08:26:01.784Z,9.23
2018-06-19T08:28:29.907Z,7.70
2018-06-19T08:30:58.147Z,5.30
2018-06-19T08:33:26.252Z,4.20
2018-06-19T08:35:54.357Z,8.90
2018-06-19T08:38:22.493Z,9.90
2018-06-19T08:40:50.594Z,5.60
2018-06-19T08:43:18.750Z,5.27
2018-06-19T08:45:46.867Z,3.60
2018-06-19T08:48:15.015Z,6.40
2018-06-19T08:50:43.139Z,7.27
2018-06-19T08:53:11.275Z,5.00
2018-06-19T08:55:39.384Z,8.40
2018-06-19T08:58:07.486Z,5.20
2018-06-19T09:00:35.644Z,6.43
2018-06-19T09:03:03.747Z,8.30
2018-06-19T09:05:31.847Z,3.70
2018-06-19T09:08:00.073Z,3.57
2018-06-19T09:10:28.200Z,3.50
2018-06-19T09:12:56.376Z,2.73
2018-06-19T09:15:24.510Z,3.40
2018-06-19T09:17:52.631Z,4.43
2018-06-19T09:20:20.802Z,2.57
2018-06-19T09:22:48.842Z,3.40
2018-06-19T09:25:16.934Z,3.40
2018-06-19T09:27:45.036Z,1.87
2018-06-19T09:30:13.135Z,5.07
2018-06-19T09:32:41.327Z,8.30
2018-06-19T09:35:09.459Z,3.43
2018-06-19T09:37:37.616Z,5.00
2018-06-19T09:40:05.711Z,2.60
2018-06-19T09:42:33.826Z,4.07
2018-06-19T09:45:01.929Z,7.57
2018-06-19T09:47:30.021Z,6.17
2018-06-19T09:49:58.180Z,10.03
2018-06-19T09:52:26.302Z,3.33
2018-06-19T09:54:54.430Z,3.40
2018-06-19T09:57:22.516Z,3.80
2018-06-19T09:59:50.630Z,3.37
2018-06-19T10:02:18.736Z,3.00
2018-06-19T10:04:46.835Z,4.20
2018-06-19T10:07:19.180Z,7.47
2018-06-19T10:09:47.291Z,4.83
2018-06-19T10:12:15.453Z,3.90
2018-06-19T10:14:43.539Z,4.27
2018-06-19T10:17:11.647Z,6.60
2018-06-19T10:19:39.744Z,7.43
2018-06-19T10:22:07.831Z,9.10
2018-06-19T10:24:35.948Z,8.50
2018-06-19T10:27:04.053Z,7.37
2018-06-19T10:29:32.139Z,4.27
2018-06-19T10:32:00.233Z,5.17
2018-06-19T10:34:28.315Z,3.57
2018-06-19T10:36:56.412Z,4.10
2018-06-19T10:39:24.512Z,4.83
2018-06-19T10:41:52.627Z,5.83
2018-06-19T10:44:20.718Z,4.17
2018-06-19T10:46:48.831Z,5.57
2018-06-19T10:49:16.921Z,6.03
2018-06-19T10:51:45.022Z,6.37
2018-06-19T10:54:13.122Z,4.63
2018-06-19T10:56:41.224Z,5.00
2018-06-19T10:59:09.315Z,3.63
2018-06-19T11:01:37.414Z,3.57
2018-06-19T11:04:05.522Z,5.37
2018-06-19T11:06:33.649Z,4.90
2018-06-19T11:09:01.720Z,6.07
2018-06-19T11:11:29.830Z,5.83
2018-06-19T11:13:57.932Z,4.23
2018-06-19T11:16:26.062Z,5.23
2018-06-19T11:18:54.188Z,4.30
2018-06-19T11:21:22.320Z,5.00
2018-06-19T11:23:50.474Z,5.63
2018-06-19T11:26:18.555Z,4.10
2018-06-19T11:28:46.661Z,3.83
2018-06-19T11:31:14.781Z,8.43
2018-06-19T11:33:42.879Z,8.50
2018-06-19T11:36:10.994Z,3.50
2018-06-19T11:38:39.159Z,8.00
2018-06-19T11:41:07.242Z,4.27
2018-06-19T11:43:35.351Z,4.60
2018-06-19T11:46:03.459Z,7.20
2018-06-19T11:48:31.579Z,5.17
2018-06-19T11:50:59.787Z,8.60
2018-06-19T11:53:27.914Z,6.40
2018-06-19T11:55:56.207Z,5.60
2018-06-19T11:58:24.324Z,4.80
2018-06-19T12:00:53.400Z,4.53
2018-06-19T12:03:21.537Z,6.83
2018-06-19T12:05:49.684Z,4.27
2018-06-19T12:08:17.832Z,3.83
2018-06-19T12:10:45.946Z,3.60
2018-06-19T12:13:14.063Z,7.03
2018-06-19T12:15:42.158Z,5.47
2018-06-19T12:18:10.281Z,2.83
2018-06-19T12:20:38.438Z,3.07
2018-06-19T12:23:06.673Z,3.60
2018-06-19T12:25:34.803Z,5.60
2018-06-19T12:28:02.911Z,5.13
2018-06-19T12:30:31.008Z,4.20
2018-06-19T12:32:59.244Z,6.30
2018-06-19T12:35:27.350Z,10.30
2018-06-19T12:37:55.260Z,7.10
2018-06-19T12:40:23.374Z,3.73
2018-06-19T12:42:51.508Z,6.87
2018-06-19T12:45:19.619Z,5.23
2018-06-19T12:47:47.728Z,4.00
2018-06-19T12:50:37.692Z,5.90
2018-06-19T12:53:17.956Z,3.10
2018-06-19T12:55:58.014Z,4.10
2018-06-19T12:58:26.109Z,3.60
2018-06-19T13:00:54.227Z,6.80
2018-06-19T13:03:33.922Z,8.90
2018-06-19T13:06:44.230Z,5.63
2018-06-19T13:09:12.409Z,4.50
2018-06-19T13:11:40.522Z,6.10
2018-06-19T13:14:20.055Z,5.43
2018-06-19T13:16:59.703Z,5.33
2018-06-19T13:19:39.312Z,6.03
2018-06-19T13:22:07.428Z,6.90
2018-06-19T13:24:35.528Z,5.80
2018-06-19T13:27:03.637Z,5.77
2018-06-19T13:29:50.620Z,5.00
2018-06-19T13:32:18.734Z,4.70
2018-06-19T13:34:47.851Z,5.00
2018-06-19T13:37:15.958Z,8.53
2018-06-19T13:39:44.606Z,5.63
2018-06-19T13:42:24.325Z,5.50
2018-06-19T13:45:04.407Z,5.17
2018-06-19T13:47:32.519Z,5.93
2018-06-19T13:50:00.661Z,6.23
2018-06-19T13:52:28.751Z,8.13
2018-06-19T13:56:08.165Z,9.67
2018-06-19T13:58:37.190Z,8.77
2018-06-19T14:01:05.545Z,5.93
2018-06-19T14:03:33.651Z,7.20
2018-06-19T14:06:02.031Z,7.13
2018-06-19T14:08:53.995Z,7.50
2018-06-19T14:11:33.631Z,6.50
2018-06-19T14:14:01.721Z,7.27
2018-06-19T14:16:29.851Z,7.83
2018-06-19T14:18:57.935Z,7.00
2018-06-19T14:21:26.016Z,6.60
2018-06-19T14:23:54.134Z,6.17
2018-06-19T14:26:22.241Z,7.43
2018-06-19T14:28:50.368Z,7.00
2018-06-19T14:31:18.450Z,6.67
2018-06-19T14:33:46.533Z,5.87
2018-06-19T14:36:14.795Z,7.73
2018-06-19T14:38:42.961Z,7.37
2018-06-19T14:41:11.060Z,8.27
2018-06-19T14:43:39.220Z,8.83
2018-06-19T14:46:07.323Z,7.20
2018-06-19T14:48:35.435Z,7.00
2018-06-19T14:51:03.546Z,6.90
2018-06-19T14:53:31.633Z,7.53
2018-06-19T14:55:59.749Z,7.07
2018-06-19T14:58:27.847Z,6.73
2018-06-19T15:00:55.976Z,7.60
2018-06-19T15:03:24.085Z,7.10
2018-06-19T15:05:52.207Z,7.90
2018-06-19T15:08:20.289Z,7.03
2018-06-19T15:10:48.374Z,7.13
2018-06-19T15:13:16.470Z,6.67
2018-06-19T15:15:44.556Z,7.13
2018-06-19T15:18:12.738Z,7.80
2018-06-19T15:20:40.804Z,8.87
2018-06-19T15:23:08.895Z,8.20
2018-06-19T15:25:37.000Z,8.40
2018-06-19T15:28:05.083Z,7.20
2018-06-19T15:30:32.958Z,8.43
2018-06-19T15:33:01.090Z,7.67
2018-06-19T15:35:29.183Z,8.93
2018-06-19T15:37:57.335Z,9.77
2018-06-19T15:40:25.420Z,8.53
2018-06-19T15:42:53.509Z,9.00
2018-06-19T15:45:22.403Z,9.27
2018-06-19T15:47:50.502Z,8.60
2018-06-19T15:50:18.587Z,8.87
2018-06-19T15:52:46.670Z,10.27
2018-06-19T15:55:14.763Z,9.80
2018-06-19T15:57:42.893Z,7.80
2018-06-19T16:00:10.999Z,9.30
2018-06-19T16:02:39.139Z,9.00
2018-06-19T16:05:07.231Z,9.73
2018-06-19T16:07:38.862Z,8.47
2018-06-19T16:10:06.963Z,8.37
2018-06-19T16:12:35.048Z,9.20
2018-06-19T16:15:03.778Z,9.43
2018-06-19T16:17:31.878Z,9.67
2018-06-19T16:19:59.997Z,10.40
2018-06-19T16:22:28.103Z,9.47
2018-06-19T16:24:56.228Z,10.33
2018-06-19T16:27:24.363Z,10.37
2018-06-19T16:29:52.490Z,10.03
2018-06-19T16:32:20.628Z,9.50
2018-06-19T16:34:48.744Z,10.17
2018-06-19T16:37:16.872Z,9.77
2018-06-19T16:39:44.982Z,10.40
2018-06-19T16:42:13.095Z,10.50
2018-06-19T16:44:40.982Z,10.03
2018-06-19T16:47:09.092Z,10.30
2018-06-19T16:49:37.207Z,11.00
2018-06-19T16:52:05.339Z,10.07
2018-06-19T16:54:33.447Z,11.83
2018-06-19T16:57:01.589Z,10.77
2018-06-19T16:59:29.717Z,11.93
2018-06-19T17:01:57.856Z,11.20
2018-06-19T17:04:25.971Z,12.47
2018-06-19T17:06:54.094Z,10.47
2018-06-19T17:09:22.211Z,11.47
2018-06-19T17:11:50.326Z,11.33
2018-06-19T17:14:18.489Z,11.10
2018-06-19T17:16:46.595Z,10.90
2018-06-19T17:19:14.681Z,11.20
2018-06-19T17:21:42.781Z,10.87
2018-06-19T17:24:10.878Z,11.57
2018-06-19T17:26:38.971Z,10.50
2018-06-19T17:29:07.119Z,10.37
2018-06-19T17:31:35.228Z,11.17
2018-06-19T17:34:03.393Z,10.83
2018-06-19T17:36:31.516Z,10.80
2018-06-19T17:38:59.631Z,10.23
2018-06-19T17:41:27.752Z,10.70
2018-06-19T17:43:55.838Z,11.03
2018-06-19T17:46:23.938Z,12.10
2018-06-19T17:48:52.054Z,11.53
2018-06-19T17:51:20.148Z,13.17
2018-06-19T17:53:48.260Z,12.47
2018-06-19T17:56:16.368Z,10.87
2018-06-19T17:58:44.464Z,12.53
2018-06-19T18:01:12.773Z,12.47
2018-06-19T18:03:40.899Z,13.27
2018-06-19T18:06:09.003Z,12.70
2018-06-19T18:08:37.100Z,13.80
2018-06-19T18:11:05.332Z,11.93
2018-06-19T18:13:33.456Z,14.67
2018-06-19T18:16:01.567Z,13.77
2018-06-19T18:18:29.683Z,13.07
2018-06-19T18:20:57.802Z,12.87
2018-06-19T18:23:25.886Z,14.30
2018-06-19T18:25:53.993Z,13.27
2018-06-19T18:28:22.103Z,14.40
2018-06-19T18:30:50.195Z,12.63
2018-06-19T18:33:18.322Z,14.87
2018-06-19T18:35:46.468Z,12.00
2018-06-19T18:38:14.563Z,12.70
2018-06-19T18:40:42.683Z,12.93
2018-06-19T18:43:10.794Z,13.30
2018-06-19T18:45:38.948Z,12.43
2018-06-19T18:48:07.039Z,12.50
2018-06-19T18:53:28.314Z,15.03
2018-06-19T18:55:56.887Z,14.13
2018-06-19T18:58:25.089Z,13.13
2018-06-19T19:00:53.291Z,12.87
2018-06-19T19:03:21.407Z,14.10
2018-06-19T19:05:49.527Z,13.47
2018-06-19T19:08:22.147Z,15.00
2018-06-19T19:10:52.622Z,12.30
2018-06-19T19:13:21.883Z,14.07
2018-06-19T19:15:55.384Z,13.70
2018-06-19T19:18:29.055Z,13.87
2018-06-19T19:20:58.104Z,15.03
2018-06-19T19:23:26.473Z,12.93
2018-06-19T19:25:54.580Z,13.53
2018-06-19T19:28:28.131Z,12.73
2018-06-19T19:30:56.241Z,13.07
2018-06-19T19:33:24.361Z,13.70
2018-06-19T19:35:52.489Z,14.67
2018-06-19T19:38:25.895Z,13.70
2018-06-19T19:40:54.000Z,13.00
2018-06-19T19:43:22.171Z,14.20
2018-06-19T19:45:50.290Z,12.77
2018-06-19T19:48:23.638Z,15.80
2018-06-19T19:50:51.748Z,15.23
2018-06-19T19:53:19.922Z,13.50
2018-06-19T19:55:53.538Z,15.97
2018-06-19T19:58:27.051Z,16.60
2018-06-19T20:00:55.162Z,13.80
2018-06-19T20:03:23.275Z,13.47
2018-06-19T20:05:51.449Z,13.87
2018-06-19T20:08:19.530Z,14.17
2018-06-19T20:10:47.723Z,13.87
2018-06-19T20:13:15.990Z,14.50
2018-06-19T20:15:44.204Z,14.27
2018-06-19T20:18:12.312Z,15.33
2018-06-19T20:20:40.445Z,14.90
2018-06-19T20:23:08.615Z,16.77
2018-06-19T20:25:36.668Z,14.83
2018-06-19T20:28:04.958Z,14.43
2018-06-19T20:30:33.060Z,14.53
2018-06-19T20:33:01.208Z,15.17
2018-06-19T20:35:29.564Z,15.27
2018-06-19T20:37:57.763Z,17.20
2018-06-19T20:40:25.866Z,16.47
2018-06-19T20:42:53.963Z,17.93
2018-06-19T20:45:22.079Z,19.17
2018-06-19T20:47:50.208Z,19.03
2018-06-19T20:50:18.341Z,15.97
2018-06-19T20:52:46.455Z,18.70
2018-06-19T20:55:14.559Z,16.67
2018-06-19T20:57:42.451Z,17.77
2018-06-19T21:00:10.562Z,18.57
2018-06-19T21:02:38.667Z,18.60
2018-06-19T21:05:06.787Z,17.03
2018-06-19T21:07:34.983Z,16.17
2018-06-19T21:10:02.895Z,16.00
2018-06-19T21:12:30.990Z,15.07
2018-06-19T21:14:59.111Z,16.30
2018-06-19T21:17:27.243Z,13.07
2018-06-19T21:19:55.364Z,15.90
2018-06-19T21:22:23.480Z,13.57
2018-06-19T21:24:51.593Z,15.63
2018-06-19T21:27:19.701Z,15.80
2018-06-19T21:29:47.855Z,14.50
2018-06-19T21:32:15.977Z,14.40
2018-06-19T21:34:44.100Z,17.30
2018-06-19T21:37:12.228Z,15.43
2018-06-19T21:39:40.340Z,16.23
2018-06-19T21:42:08.443Z,17.10
2018-06-19T21:44:36.566Z,15.40
2018-06-19T21:47:04.752Z,18.07
2018-06-19T21:49:32.876Z,16.57
2018-06-19T21:52:00.979Z,16.53
2018-06-19T21:54:29.070Z,17.53
2018-06-19T21:56:57.235Z,19.07
2018-06-19T21:59:25.313Z,18.77
2018-06-19T22:01:53.426Z,17.20
2018-06-19T22:04:21.536Z,20.10
2018-06-19T22:06:49.635Z,20.13
2018-06-19T22:09:17.792Z,21.27
2018-06-19T22:11:45.918Z,22.53
2018-06-19T22:14:14.023Z,21.70
2018-06-19T22:16:42.139Z,21.27
2018-06-19T22:19:10.229Z,20.90
2018-06-19T22:21:38.333Z,20.23
2018-06-19T22:24:06.460Z,20.23
2018-06-19T22:26:34.565Z,19.40
2018-06-19T22:29:02.707Z,20.97
2018-06-19T22:31:30.819Z,20.10
2018-06-19T22:33:58.978Z,20.70
2018-06-19T22:36:27.088Z,20.23
2018-06-19T22:38:55.177Z,23.80
2018-06-19T22:41:23.282Z,19.80
2018-06-19T22:43:51.396Z,21.70
2018-06-19T22:46:19.507Z,26.27
2018-06-19T22:48:47.623Z,26.97
2018-06-19T22:51:15.728Z,24.17
2018-06-19T22:53:43.851Z,21.07
2018-06-19T22:56:11.976Z,24.90
2018-06-19T22:58:40.068Z,24.27
2018-06-19T23:01:08.279Z,26.23
2018-06-19T23:03:36.384Z,30.43
2018-06-19T23:06:04.514Z,28.90
2018-06-19T23:08:35.288Z,33.30
2018-06-19T23:11:03.810Z,30.80
2018-06-19T23:13:31.907Z,29.23
2018-06-19T23:16:00.021Z,29.63
2018-06-19T23:18:28.152Z,32.00
2018-06-19T23:20:56.269Z,29.93
2018-06-19T23:23:24.478Z,31.07
2018-06-19T23:25:52.534Z,32.23
2018-06-19T23:28:20.636Z,33.23
2018-06-19T23:30:48.745Z,31.67
2018-06-19T23:33:16.830Z,29.07
2018-06-19T23:35:44.970Z,29.50
2018-06-19T23:38:13.064Z,36.13
2018-06-19T23:40:41.163Z,30.30
2018-06-19T23:43:09.292Z,28.77
2018-06-19T23:45:37.398Z,33.23
2018-06-19T23:48:05.475Z,29.10
2018-06-19T23:50:33.586Z,32.33
2018-06-19T23:53:01.710Z,26.97
2018-06-19T23:55:29.813Z,28.07
2018-06-19T23:57:57.933Z,28.80
